RYR292Q LIRP-LIEE
Flight info
| Callsign | RYR292Q |
|---|---|
| Flight time | N/A |
| Altitude | 31000 |
| Route | DOCME M729 ELB DCT NEMIT DCT BATOX DCT ALEDI M126 LEDRO |
| Aircraft | B738/M-SDE2E3FGHIRWXY/LB1 |
Departure
| Time | 2026-04-29 15:40 |
|---|---|
| Airport | Pisa International Airport (LIRP) |
Arrival
| Time | N/A |
|---|---|
| Airport | Cagliari Elmas Airport (LIEE) |
| Time | Latitude | Longitude | Altitude | Speed | Heading |
|---|---|---|---|---|---|
| 2026-04-29 15:17 | 43.69749 | 10.40032 | 14 ft | 0 kts | 9° |
| 2026-04-29 15:34 | 43.69734 | 10.40029 | 14 ft | 3 kts | 7° |
| 2026-04-29 15:34 | 43.69722 | 10.40027 | 14 ft | 1 kts | 8° |
| 2026-04-29 15:34 | 43.69713 | 10.40025 | 14 ft | 1 kts | 9° |
| 2026-04-29 15:35 | 43.69704 | 10.40022 | 14 ft | 3 kts | 31° |
| 2026-04-29 15:35 | 43.69690 | 10.40007 | 16 ft | 2 kts | 77° |
| 2026-04-29 15:36 | 43.69689 | 10.39990 | 17 ft | 2 kts | 91° |
| 2026-04-29 15:36 | 43.69689 | 10.39981 | 17 ft | 0 kts | 95° |
| 2026-04-29 15:38 | 43.69683 | 10.40015 | 16 ft | 13 kts | 113° |
| 2026-04-29 15:38 | 43.69594 | 10.40064 | 14 ft | 15 kts | 172° |
| 2026-04-29 15:39 | 43.69449 | 10.40092 | 20 ft | 26 kts | 171° |
| 2026-04-29 15:39 | 43.69314 | 10.40232 | 18 ft | 26 kts | 127° |
| 2026-04-29 15:39 | 43.69205 | 10.40281 | 21 ft | 21 kts | 215° |
| 2026-04-29 15:39 | 43.68911 | 10.39977 | 18 ft | 95 kts | 217° |
| 2026-04-29 15:40 | 43.68163 | 10.39212 | 32 ft | 168 kts | 216° |
| 2026-04-29 15:40 | 43.67216 | 10.38198 | 994 ft | 169 kts | 220° |
| 2026-04-29 15:40 | 43.66296 | 10.37211 | 2142 ft | 169 kts | 211° |
| 2026-04-29 15:40 | 43.65239 | 10.36461 | 2918 ft | 178 kts | 203° |
| 2026-04-29 15:41 | 43.64056 | 10.35650 | 3344 ft | 204 kts | 203° |
| 2026-04-29 15:41 | 43.62686 | 10.34924 | 3773 ft | 223 kts | 199° |
| 2026-04-29 15:41 | 43.61140 | 10.34164 | 3995 ft | 245 kts | 197° |
| 2026-04-29 15:41 | 43.59520 | 10.33346 | 4593 ft | 249 kts | 200° |
| 2026-04-29 15:42 | 43.58000 | 10.32385 | 5644 ft | 234 kts | 205° |
| 2026-04-29 15:42 | 43.56517 | 10.31347 | 6160 ft | 243 kts | 207° |
| 2026-04-29 15:42 | 43.54996 | 10.30351 | 6888 ft | 238 kts | 203° |
| 2026-04-29 15:42 | 43.53503 | 10.29560 | 7732 ft | 228 kts | 201° |
| 2026-04-29 15:43 | 43.52011 | 10.28816 | 8326 ft | 230 kts | 202° |
| 2026-04-29 15:43 | 43.50490 | 10.27927 | 8583 ft | 245 kts | 207° |